Time;durP1;ratioP1;P1;durP2;ratioP2;P2;SDS_P1;SDS_P2;PMS_P1;PMS_P2;Temp;Humidity;BMP_temperature;BMP_pressure;BME280_temperature;BME280_humidity;BME280_pressure;Samples;Min_cycle;Max_cycle;Signal;HPM_P1;HPM_P2
2022/09/09 00:01:24;;;;;;;2.35;1.50;;;;;;;18.48;62.16;99073.47;5073579;28;20381;-63
2022/09/09 00:03:59;;;;;;;3.67;1.60;;;;;;;18.54;62.12;99072.84;5073490;28;20095;-62
2022/09/09 00:06:46;;;;;;;4.00;1.60;;;;;;;18.49;62.41;99053.81;5072173;28;20088;-62
2022/09/09 00:09:20;;;;;;;5.50;1.67;;;;;;;18.52;62.55;99058.00;5052120;28;20080;-62
2022/09/09 00:12:09;;;;;;;4.32;1.70;;;;;;;18.49;62.63;99061.81;5053842;28;20421;-62
2022/09/09 00:14:48;;;;;;;9.13;1.48;;;;;;;18.53;62.09;99051.66;5053280;28;20145;-62
2022/09/09 00:17:39;;;;;;;5.28;1.70;;;;;;;18.48;62.41;99055.66;5058227;28;20087;-63
2022/09/09 00:20:27;;;;;;;5.45;1.50;;;;;;;18.46;62.79;99052.31;5072953;28;20098;-63
2022/09/09 00:23:18;;;;;;;3.08;1.20;;;;;;;18.48;62.81;99057.47;5072939;28;20110;-64
2022/09/09 00:25:59;;;;;;;3.35;1.40;;;;;;;18.42;62.96;99048.28;5073148;28;20052;-61
2022/09/09 00:28:27;;;;;;;4.78;1.45;;;;;;;18.47;62.69;99053.16;5072689;28;20044;-61
2022/09/09 00:30:57;;;;;;;4.65;1.70;;;;;;;18.47;62.66;99053.16;5073276;28;20044;-62
2022/09/09 00:33:26;;;;;;;3.85;1.67;;;;;;;18.46;63.04;99054.13;5072936;28;20489;-62
2022/09/09 00:35:58;;;;;;;3.03;1.60;;;;;;;18.45;63.46;99055.13;5072675;28;20138;-62
2022/09/09 00:38:41;;;;;;;5.30;1.63;;;;;;;18.43;63.31;99055.28;5071153;28;20124;-62
2022/09/09 00:41:18;;;;;;;4.00;1.48;;;;;;;18.42;63.55;99058.09;5072686;28;20114;-61
2022/09/09 00:43:55;;;;;;;5.45;1.50;;;;;;;18.46;63.60;99054.97;5072956;28;20489;-63
2022/09/09 00:46:43;;;;;;;4.03;1.80;;;;;;;18.40;63.97;99055.59;5072641;28;20084;-62
2022/09/09 00:49:52;;;;;;;6.63;1.75;;;;;;;18.38;63.90;99051.44;5052533;28;20596;-63
2022/09/09 00:52:42;;;;;;;3.92;1.98;;;;;;;18.38;64.05;99049.59;5041332;28;20073;-65
2022/09/09 00:55:21;;;;;;;4.13;1.60;;;;;;;18.39;64.30;99045.09;5052926;28;20098;-62
2022/09/09 00:57:52;;;;;;;5.43;1.90;;;;;;;18.40;64.20;99038.78;5063109;28;20076;-62
2022/09/09 01:00:46;;;;;;;4.88;2.05;;;;;;;18.36;64.54;99038.25;5070446;28;20072;-64
2022/09/09 01:03:34;;;;;;;4.80;1.70;;;;;;;18.35;64.35;99047.22;5056160;28;20163;-62
2022/09/09 01:06:30;;;;;;;4.15;2.03;;;;;;;18.34;64.55;99043.75;5072418;28;20084;-64
2022/09/09 01:09:15;;;;;;;6.07;2.25;;;;;;;18.38;64.40;99046.09;5053041;28;20079;-63
2022/09/09 01:11:42;;;;;;;5.00;1.98;;;;;;;18.39;64.13;99043.25;5072286;28;20489;-62
2022/09/09 01:14:25;;;;;;;3.25;2.08;;;;;;;18.33;64.83;99047.41;5071071;28;20571;-64
2022/09/09 01:16:59;;;;;;;4.47;2.15;;;;;;;18.36;64.39;99043.59;5070777;28;20041;-64
2022/09/09 01:19:42;;;;;;;5.28;1.98;;;;;;;18.33;64.66;99039.41;5071849;28;20056;-65
2022/09/09 01:22:19;;;;;;;5.88;2.17;;;;;;;18.32;64.90;99040.38;5072230;28;20098;-62
2022/09/09 01:25:49;;;;;;;4.47;2.40;;;;;;;18.31;65.07;99049.38;5071586;28;20467;-63
2022/09/09 01:28:21;;;;;;;5.63;2.38;;;;;;;18.33;64.50;99044.75;5071806;28;20124;-62
2022/09/09 01:30:48;;;;;;;3.00;2.30;;;;;;;18.32;64.44;99037.72;5071848;28;20174;-63
2022/09/09 01:33:17;;;;;;;6.10;2.42;;;;;;;18.31;64.60;99035.19;5071513;28;20110;-65
2022/09/09 01:35:50;;;;;;;6.35;2.03;;;;;;;18.28;65.10;99040.84;5070868;28;20143;-63
2022/09/09 01:38:18;;;;;;;3.72;2.05;;;;;;;18.27;64.79;99040.00;5070277;28;20522;-63
2022/09/09 01:40:44;;;;;;;5.57;2.25;;;;;;;18.24;64.59;99040.31;5071855;28;20114;-62
2022/09/09 01:43:11;;;;;;;4.30;2.00;;;;;;;18.22;65.07;99042.31;5071185;28;20113;-64
2022/09/09 01:45:41;;;;;;;3.75;2.00;;;;;;;18.20;65.06;99041.63;5051621;28;20067;-64
2022/09/09 01:48:08;;;;;;;6.57;1.98;;;;;;;18.19;64.99;99042.63;5050170;28;20063;-64
2022/09/09 01:50:34;;;;;;;2.88;1.85;;;;;;;18.17;64.98;99036.63;5051336;28;20167;-62
2022/09/09 01:53:02;;;;;;;4.20;2.33;;;;;;;18.15;65.25;99041.25;5053002;28;20131;-63
2022/09/09 01:55:33;;;;;;;3.45;1.67;;;;;;;18.14;65.51;99052.91;5070320;28;20513;-62
2022/09/09 01:58:18;;;;;;;6.28;2.08;;;;;;;18.07;65.68;99048.16;5071369;28;20558;-64
2022/09/09 02:01:09;;;;;;;8.75;2.63;;;;;;;18.10;65.79;99055.88;5069972;28;20060;-63
2022/09/09 02:03:36;;;;;;;6.05;2.10;;;;;;;18.13;65.39;99059.22;5069497;28;20048;-63
2022/09/09 02:06:37;;;;;;;3.47;1.70;;;;;;;18.07;65.78;99058.81;5070857;28;20068;-62
2022/09/09 02:09:11;;;;;;;6.13;1.92;;;;;;;18.10;65.31;99063.03;5071096;28;20068;-63
2022/09/09 02:11:38;;;;;;;4.50;1.88;;;;;;;18.11;65.14;99070.03;5070063;28;20114;-62
2022/09/09 02:14:17;;;;;;;4.85;1.63;;;;;;;18.06;65.78;99062.44;5071079;28;20447;-64
2022/09/09 02:16:50;;;;;;;2.22;1.33;;;;;;;18.05;65.59;99074.09;5071321;28;20052;-63
2022/09/09 02:19:36;;;;;;;5.07;1.92;;;;;;;18.04;65.89;99072.44;5069436;28;20084;-64
2022/09/09 02:22:04;;;;;;;3.67;1.42;;;;;;;18.06;65.41;99074.94;5070742;28;20086;-63
2022/09/09 02:24:36;;;;;;;4.93;1.90;;;;;;;18.04;65.73;99075.09;5069044;28;20040;-63
2022/09/09 02:27:08;;;;;;;6.35;1.70;;;;;;;18.02;65.29;99074.41;5069105;28;20097;-64
2022/09/09 02:29:39;;;;;;;6.90;2.22;;;;;;;18.02;65.71;99071.72;5070556;28;20094;-63
2022/09/09 02:32:11;;;;;;;4.60;1.70;;;;;;;18.00;65.33;99076.38;5070943;28;20126;-62
2022/09/09 02:34:45;;;;;;;2.65;2.00;;;;;;;17.97;65.47;99076.69;5070371;28;20102;-62
2022/09/09 02:37:15;;;;;;;3.50;1.58;;;;;;;17.95;65.23;99071.50;5070934;28;20141;-62
2022/09/09 02:39:42;;;;;;;3.78;2.03;;;;;;;17.93;65.08;99068.19;5069397;28;20455;-64
2022/09/09 02:42:09;;;;;;;5.30;2.33;;;;;;;17.90;65.25;99067.66;5070446;28;20084;-62
2022/09/09 02:44:37;;;;;;;3.00;2.08;;;;;;;17.87;65.38;99070.63;5070415;28;20076;-63
2022/09/09 02:47:41;;;;;;;5.53;2.13;;;;;;;17.78;65.98;99064.34;5069485;28;20084;-63
2022/09/09 02:50:13;;;;;;;3.10;1.92;;;;;;;17.77;66.06;99068.03;5070028;28;20091;-62
2022/09/09 02:53:15;;;;;;;6.43;2.70;;;;;;;17.71;66.01;99069.44;5070306;28;20131;-62
2022/09/09 02:55:48;;;;;;;3.42;2.55;;;;;;;17.73;65.79;99066.66;5070556;28;20049;-62
2022/09/09 02:58:20;;;;;;;5.63;2.33;;;;;;;17.71;65.95;99069.44;5070512;28;20416;-61
2022/09/09 03:00:48;;;;;;;4.05;2.70;;;;;;;17.70;65.90;99060.66;5069043;28;20052;-62
2022/09/09 03:03:17;;;;;;;8.13;3.08;;;;;;;17.70;65.80;99067.78;5068885;28;20469;-65
2022/09/09 03:05:45;;;;;;;3.65;2.05;;;;;;;17.69;65.59;99066.13;5070375;28;20154;-62
2022/09/09 03:08:12;;;;;;;4.93;2.42;;;;;;;17.68;65.98;99061.78;5068435;28;20060;-63
2022/09/09 03:10:39;;;;;;;4.13;2.10;;;;;;;17.69;65.73;99074.09;5069021;28;20060;-62
2022/09/09 03:13:06;;;;;;;3.55;2.13;;;;;;;17.69;65.89;99074.09;5070183;28;20135;-63
2022/09/09 03:15:34;;;;;;;5.85;2.13;;;;;;;17.70;66.05;99067.78;5069290;28;20382;-63
2022/09/09 03:18:01;;;;;;;3.17;2.15;;;;;;;17.71;66.15;99069.44;5069404;28;20131;-62
2022/09/09 03:20:30;;;;;;;3.80;2.20;;;;;;;17.72;66.16;99073.81;5069820;28;20083;-63
2022/09/09 03:22:59;;;;;;;3.28;2.05;;;;;;;17.75;66.04;99076.16;5070000;28;20075;-63
2022/09/09 03:25:26;;;;;;;3.72;2.08;;;;;;;17.77;66.01;99068.88;5068970;28;20106;-62
2022/09/09 03:27:54;;;;;;;5.43;2.42;;;;;;;17.76;66.03;99067.16;5069772;28;20459;-62
2022/09/09 03:30:22;;;;;;;4.13;2.70;;;;;;;17.77;65.88;99066.22;5070048;28;20048;-62
2022/09/09 03:32:49;;;;;;;4.68;2.30;;;;;;;17.75;66.21;99068.16;5068811;28;20077;-62
2022/09/09 03:35:16;;;;;;;3.70;1.98;;;;;;;17.75;66.09;99065.50;5070179;28;20099;-64
2022/09/09 03:37:43;;;;;;;4.35;2.22;;;;;;;17.75;65.90;99070.81;5068424;28;20512;-62
2022/09/09 03:40:10;;;;;;;3.55;2.55;;;;;;;17.74;66.19;99073.63;5068283;28;20053;-61
2022/09/09 03:42:37;;;;;;;3.75;2.60;;;;;;;17.73;66.44;99078.13;5069937;28;20049;-62
2022/09/09 03:45:06;;;;;;;3.42;2.30;;;;;;;17.72;66.15;99079.13;5068823;28;20144;-65
2022/09/09 03:47:33;;;;;;;2.80;2.03;;;;;;;17.72;66.30;99073.81;5069742;28;20055;-62
2022/09/09 03:49:59;;;;;;;8.20;2.63;;;;;;;17.71;66.31;99075.63;5069383;28;20491;-63
2022/09/09 03:52:26;;;;;;;3.97;2.28;;;;;;;17.74;66.46;99071.81;5069651;28;20060;-63
2022/09/09 03:54:54;;;;;;;5.00;2.50;;;;;;;17.75;66.23;99076.16;5069786;28;20139;-62
2022/09/09 03:57:21;;;;;;;3.25;2.25;;;;;;;17.77;66.37;99063.53;5070181;28;20485;-64
2022/09/09 03:59:48;;;;;;;6.22;2.20;;;;;;;17.81;66.38;99072.06;5072879;28;20491;-62
2022/09/09 04:02:15;;;;;;;4.82;2.58;;;;;;;17.83;66.50;99059.44;5073177;28;20052;-64
2022/09/09 04:04:42;;;;;;;3.15;2.00;;;;;;;17.84;66.19;99063.78;5073790;28;20102;-63
2022/09/09 04:07:08;;;;;;;3.22;2.17;;;;;;;17.84;66.20;99061.94;5073615;28;20524;-62
2022/09/09 04:09:35;;;;;;;4.68;2.50;;;;;;;17.85;66.38;99060.13;5072986;28;20539;-63
2022/09/09 04:12:02;;;;;;;4.35;2.38;;;;;;;17.84;66.10;99055.78;5073299;28;20044;-62
2022/09/09 04:14:28;;;;;;;5.00;2.22;;;;;;;17.84;66.04;99051.28;5073178;28;20084;-62
2022/09/09 04:16:57;;;;;;;5.90;2.20;;;;;;;17.84;66.17;99056.59;5073439;28;20048;-64
2022/09/09 04:19:23;;;;;;;3.17;1.85;;;;;;;17.83;66.04;99048.78;5072598;28;20550;-62
2022/09/09 04:21:51;;;;;;;2.78;2.00;;;;;;;17.83;65.91;99048.78;5073345;28;20475;-62
2022/09/09 04:24:18;;;;;;;3.10;2.47;;;;;;;17.83;66.03;99060.25;5071593;28;20500;-62
2022/09/09 04:26:45;;;;;;;2.25;2.00;;;;;;;17.83;65.90;99057.59;5073463;28;20135;-64
2022/09/09 04:29:12;;;;;;;4.93;2.30;;;;;;;17.83;66.13;99065.59;5071394;28;20048;-62
2022/09/09 04:31:41;;;;;;;2.15;1.95;;;;;;;17.82;65.79;99063.06;5071726;28;20048;-61
2022/09/09 04:34:11;;;;;;;5.45;2.35;;;;;;;17.80;66.24;99065.06;5053108;28;20060;-64
2022/09/09 04:36:40;;;;;;;4.40;2.35;;;;;;;17.78;66.03;99062.53;5053091;28;20049;-62
2022/09/09 04:39:07;;;;;;;2.88;2.25;;;;;;;17.76;65.89;99059.19;5052780;28;20053;-62
2022/09/09 04:41:35;;;;;;;4.22;2.10;;;;;;;17.74;66.10;99065.66;5071625;28;20056;-64
2022/09/09 04:44:01;;;;;;;3.25;2.00;;;;;;;17.72;66.09;99068.50;5072527;28;20504;-62
2022/09/09 04:46:28;;;;;;;6.97;2.53;;;;;;;17.72;66.36;99068.50;5072634;28;20092;-63
2022/09/09 04:48:54;;;;;;;3.38;2.17;;;;;;;17.70;66.54;99063.31;5071223;28;20139;-62
2022/09/09 04:51:21;;;;;;;3.78;2.13;;;;;;;17.70;66.52;99073.97;5072397;28;20131;-63
2022/09/09 04:53:48;;;;;;;4.35;2.00;;;;;;;17.70;66.50;99075.78;5072629;28;20080;-61
2022/09/09 04:56:16;;;;;;;2.95;2.10;;;;;;;17.69;66.65;99069.59;5072329;28;20084;-62
2022/09/09 04:58:43;;;;;;;3.67;2.22;;;;;;;17.69;66.70;99069.59;5071234;28;20114;-63
2022/09/09 05:01:17;;;;;;;3.85;1.98;;;;;;;17.68;66.83;99067.13;5072049;28;20136;-63
2022/09/09 05:03:47;;;;;;;3.72;2.30;;;;;;;17.69;66.68;99072.25;5072403;28;20064;-63
2022/09/09 05:06:16;;;;;;;3.05;2.10;;;;;;;17.68;66.83;99075.09;5072225;28;20049;-64
2022/09/09 05:08:44;;;;;;;6.80;2.65;;;;;;;17.70;66.91;99083.75;5071491;28;20094;-63
2022/09/09 05:11:19;;;;;;;5.80;2.70;;;;;;;17.67;67.20;99079.56;5071681;28;20052;-62
2022/09/09 05:13:46;;;;;;;6.68;2.88;;;;;;;17.69;66.97;99082.91;5071582;28;20060;-63
2022/09/09 05:16:13;;;;;;;5.40;2.45;;;;;;;17.70;66.75;99086.41;5071884;28;20084;-62
2022/09/09 05:18:42;;;;;;;4.68;2.60;;;;;;;17.71;66.78;99080.09;5070866;28;20159;-63
2022/09/09 05:21:14;;;;;;;5.15;2.67;;;;;;;17.71;66.81;99082.75;5072373;28;20048;-62
2022/09/09 05:23:45;;;;;;;5.15;3.17;;;;;;;17.70;66.79;99078.44;5070956;28;20091;-62
2022/09/09 05:26:14;;;;;;;5.80;2.60;;;;;;;17.69;66.91;99074.09;5072070;28;20094;-62
2022/09/09 05:28:43;;;;;;;4.82;2.72;;;;;;;17.69;66.88;99066.13;5071516;28;20044;-63
2022/09/09 05:31:12;;;;;;;6.32;3.15;;;;;;;17.68;66.87;99067.94;5071781;28;20701;-62
2022/09/09 05:33:42;;;;;;;4.63;2.80;;;;;;;17.69;66.66;99063.47;5071838;28;20084;-62
2022/09/09 05:36:13;;;;;;;5.60;3.30;;;;;;;17.67;66.81;99068.09;5071645;28;20094;-64
2022/09/09 05:38:41;;;;;;;6.03;2.90;;;;;;;17.69;66.87;99066.94;5070077;28;20083;-65
2022/09/09 05:41:10;;;;;;;6.78;3.22;;;;;;;17.69;67.09;99069.59;5071495;28;20041;-63
2022/09/09 05:43:38;;;;;;;4.35;2.92;;;;;;;17.70;67.08;99065.97;5071566;28;20431;-63
2022/09/09 05:46:10;;;;;;;3.97;3.00;;;;;;;17.73;67.54;99069.31;5069984;28;20102;-63
2022/09/09 05:48:39;;;;;;;5.00;2.58;;;;;;;17.75;67.58;99080.66;5069630;28;20106;-62
2022/09/09 05:51:08;;;;;;;6.13;2.88;;;;;;;17.79;67.46;99074.88;5069907;28;20072;-62
2022/09/09 05:53:35;;;;;;;3.28;2.08;;;;;;;17.82;67.39;99085.22;5071572;28;20469;-62
2022/09/09 05:56:14;;;;;;;5.13;2.50;;;;;;;17.83;67.68;99088.72;5071276;28;20052;-63
2022/09/09 05:58:43;;;;;;;3.75;2.58;;;;;;;17.89;67.40;99082.78;5069748;28;20114;-61
2022/09/09 06:01:19;;;;;;;5.00;2.78;;;;;;;17.90;68.00;99073.81;5070641;28;20044;-63
2022/09/09 06:03:47;;;;;;;4.13;2.35;;;;;;;17.96;67.66;99077.69;5070955;28;20044;-62
2022/09/09 06:06:20;;;;;;;4.47;2.40;;;;;;;17.97;67.64;99077.53;5070920;28;20049;-62
2022/09/09 06:08:50;;;;;;;2.90;2.20;;;;;;;18.02;67.30;99076.25;5070930;28;20097;-64
2022/09/09 06:11:23;;;;;;;3.72;2.35;;;;;;;18.02;67.55;99071.72;5070557;28;20060;-63
2022/09/09 06:13:53;;;;;;;2.80;2.00;;;;;;;18.06;67.55;99067.78;5070100;28;20139;-62
2022/09/09 06:16:24;;;;;;;8.10;2.35;;;;;;;18.06;67.47;99065.13;5069626;28;20056;-66
2022/09/09 06:18:53;;;;;;;5.53;2.28;;;;;;;18.11;67.36;99070.03;5068204;28;20179;-62
2022/09/09 06:21:21;;;;;;;6.82;2.22;;;;;;;18.14;67.57;99074.22;5070614;28;20182;-62
2022/09/09 06:23:48;;;;;;;6.43;2.40;;;;;;;18.16;67.27;99067.72;5070618;28;20133;-63
2022/09/09 06:26:18;;;;;;;7.10;2.65;;;;;;;18.17;67.60;99069.41;5071184;28;20123;-63
2022/09/09 06:28:49;;;;;;;6.82;2.20;;;;;;;18.19;67.57;99064.78;5070778;28;20134;-63
2022/09/09 06:31:21;;;;;;;4.30;2.20;;;;;;;18.23;67.59;99068.81;5070658;28;20041;-64
2022/09/09 06:33:54;;;;;;;3.92;1.92;;;;;;;18.27;67.46;99073.81;5070554;28;20052;-63
2022/09/09 06:36:23;;;;;;;4.10;1.95;;;;;;;18.29;67.23;99070.00;5070707;28;20157;-62
2022/09/09 06:38:51;;;;;;;4.95;1.98;;;;;;;18.33;67.01;99078.53;5070523;28;20053;-63
2022/09/09 06:41:20;;;;;;;3.78;2.28;;;;;;;18.32;67.47;99072.34;5070791;28;20075;-63
2022/09/09 06:43:47;;;;;;;4.18;1.80;;;;;;;18.35;67.23;99074.72;5070544;28;20123;-63
2022/09/09 06:46:13;;;;;;;3.72;1.85;;;;;;;18.35;67.46;99069.38;5070590;28;20088;-63
2022/09/09 06:48:46;;;;;;;5.80;1.90;;;;;;;18.39;67.20;99077.88;5069031;28;20049;-62
2022/09/09 06:51:17;;;;;;;6.30;2.20;;;;;;;18.41;67.14;99083.06;5069276;28;20052;-62
2022/09/09 06:53:45;;;;;;;5.88;1.70;;;;;;;18.45;67.42;99087.94;5070541;28;20063;-62
2022/09/09 06:56:29;;;;;;;2.85;1.63;;;;;;;18.45;67.42;99085.28;5070761;28;20140;-62
2022/09/09 06:58:58;;;;;;;6.82;1.85;;;;;;;18.52;67.03;99084.66;5070316;28;20413;-62
2022/09/09 07:01:27;;;;;;;5.18;1.60;;;;;;;18.55;67.22;99085.19;5069109;28;20048;-63
2022/09/09 07:03:55;;;;;;;4.10;2.03;;;;;;;18.58;67.03;99079.53;5069315;28;20056;-62
2022/09/09 07:06:25;;;;;;;4.43;2.20;;;;;;;18.61;67.18;99083.69;5068904;28;20092;-62
2022/09/09 07:08:52;;;;;;;5.35;1.75;;;;;;;18.64;67.34;99078.06;5068955;28;20044;-63
2022/09/09 07:11:25;;;;;;;3.10;1.60;;;;;;;18.68;67.24;99076.75;5069149;28;20193;-64
2022/09/09 07:13:52;;;;;;;3.10;1.70;;;;;;;18.73;67.28;99076.31;5069039;28;20048;-62
2022/09/09 07:16:22;;;;;;;3.03;1.63;;;;;;;18.80;67.50;99084.50;5069065;28;20570;-63
2022/09/09 07:18:50;;;;;;;3.65;1.80;;;;;;;18.87;66.97;99086.38;5070357;28;20057;-64
2022/09/09 07:21:17;;;;;;;6.70;2.60;;;;;;;18.92;67.22;99080.59;5070293;28;20114;-63
2022/09/09 07:23:44;;;;;;;4.68;1.83;;;;;;;18.98;67.05;99079.94;5070285;28;20084;-62
2022/09/09 07:26:13;;;;;;;5.07;2.25;;;;;;;19.04;66.98;99073.13;5070030;28;20091;-62
2022/09/09 07:28:41;;;;;;;4.30;1.98;;;;;;;19.13;66.80;99082.03;5070233;28;20056;-63
2022/09/09 07:31:16;;;;;;;6.75;2.15;;;;;;;19.18;66.22;99084.22;5070021;28;20094;-63
2022/09/09 07:33:44;;;;;;;8.57;1.98;;;;;;;19.25;66.44;99085.25;5071681;28;20052;-62
2022/09/09 07:36:15;;;;;;;4.60;1.70;;;;;;;19.29;66.07;99086.63;5072716;28;20558;-62
2022/09/09 07:38:45;;;;;;;4.75;1.77;;;;;;;19.35;66.11;99091.28;5073743;28;20092;-63
2022/09/09 07:41:16;;;;;;;6.28;1.48;;;;;;;19.39;66.08;99092.66;5072570;28;20045;-63
2022/09/09 07:43:45;;;;;;;7.70;2.22;;;;;;;19.45;66.18;99101.00;5072665;28;20076;-64
2022/09/09 07:46:13;;;;;;;6.25;1.80;;;;;;;19.51;66.17;99101.19;5073687;28;20048;-63
2022/09/09 07:48:55;;;;;;;5.43;2.03;;;;;;;19.52;65.39;99092.16;5073559;28;20563;-63
2022/09/09 07:51:31;;;;;;;5.78;1.80;;;;;;;19.59;65.25;99104.88;5073849;28;20053;-63
2022/09/09 07:54:01;;;;;;;4.93;1.55;;;;;;;19.64;65.92;99105.22;5074122;28;20048;-64
2022/09/09 07:56:30;;;;;;;4.30;2.30;;;;;;;19.65;65.31;99094.38;5073413;28;20478;-64
2022/09/09 07:58:59;;;;;;;7.15;2.55;;;;;;;19.66;65.57;99096.06;5072417;28;20411;-63
2022/09/09 08:01:29;;;;;;;4.68;1.77;;;;;;;19.66;65.58;99093.38;5073444;28;20100;-63
2022/09/09 08:04:00;;;;;;;5.25;2.17;;;;;;;19.67;65.58;99097.72;5072219;28;20127;-64
2022/09/09 08:06:30;;;;;;;7.65;2.03;;;;;;;19.67;65.01;99100.38;5072616;28;20183;-62
2022/09/09 08:08:56;;;;;;;6.30;1.90;;;;;;;19.67;65.32;99103.06;5073367;28;20044;-63
2022/09/09 08:11:25;;;;;;;6.43;2.10;;;;;;;19.67;65.43;99102.25;5073419;28;20087;-62
2022/09/09 08:13:52;;;;;;;5.90;2.35;;;;;;;19.66;65.32;99106.72;5072225;28;20059;-63
2022/09/09 08:16:24;;;;;;;5.40;2.30;;;;;;;19.65;65.76;99102.41;5073139;28;20056;-63
2022/09/09 08:18:52;;;;;;;4.82;2.10;;;;;;;19.67;65.55;99097.72;5071995;28;20126;-63
2022/09/09 08:21:22;;;;;;;5.85;2.55;;;;;;;19.69;65.73;99104.75;5073176;28;20135;-63
2022/09/09 08:23:52;;;;;;;4.35;2.10;;;;;;;19.71;65.28;99100.06;5073181;28;20550;-64
2022/09/09 08:26:27;;;;;;;7.25;2.35;;;;;;;19.73;65.08;99098.09;5073247;28;20537;-63
2022/09/09 08:28:56;;;;;;;9.85;2.45;;;;;;;19.74;65.28;99100.56;5072755;28;20488;-63
2022/09/09 08:31:31;;;;;;;6.65;2.30;;;;;;;19.76;65.33;99103.06;5071798;28;20087;-63
2022/09/09 08:33:59;;;;;;;7.30;2.00;;;;;;;19.77;64.88;99102.91;5073565;28;20056;-63
2022/09/09 08:36:28;;;;;;;8.93;2.63;;;;;;;19.78;64.95;99117.94;5072991;28;20095;-63
2022/09/09 08:38:57;;;;;;;3.88;2.00;;;;;;;19.79;65.22;99105.44;5072573;28;20562;-63
2022/09/09 08:41:48;;;;;;;6.80;2.58;;;;;;;19.79;64.73;99111.63;5072726;28;20044;-64
2022/09/09 08:44:21;;;;;;;6.72;2.13;;;;;;;19.85;65.02;99118.13;5072761;28;20091;-63
2022/09/09 08:46:48;;;;;;;8.30;2.38;;;;;;;19.90;65.10;99118.47;5071692;28;20114;-64
2022/09/09 08:49:50;;;;;;;6.35;2.38;;;;;;;19.91;64.81;99114.81;5072564;28;20137;-62
2022/09/09 08:52:25;;;;;;;11.57;2.55;;;;;;;19.97;64.94;99116.00;5018044;28;20085;-63
2022/09/09 08:54:55;;;;;;;7.07;2.20;;;;;;;20.07;65.13;99117.69;5071480;28;20056;-62
2022/09/09 08:57:26;;;;;;;5.82;2.38;;;;;;;20.13;64.96;99117.03;5072642;28;20110;-63
2022/09/09 08:59:56;;;;;;;6.22;2.33;;;;;;;20.21;65.09;99114.34;5072394;28;20114;-66
2022/09/09 09:02:42;;;;;;;4.65;1.75;;;;;;;20.27;64.37;99113.72;5072551;28;20048;-63
2022/09/09 09:05:47;;;;;;;6.13;2.20;;;;;;;20.36;64.24;99119.03;5072599;28;20048;-63
2022/09/09 09:08:33;;;;;;;4.57;1.90;;;;;;;20.46;64.55;99122.38;5047022;28;20112;-63
2022/09/09 09:11:01;;;;;;;6.68;2.33;;;;;;;20.60;65.18;99133.41;5070990;28;20055;-62
2022/09/09 09:13:53;;;;;;;6.43;2.08;;;;;;;20.63;64.29;99125.88;5070956;28;20441;-63
2022/09/09 09:16:23;;;;;;;6.60;2.20;;;;;;;20.79;64.14;99134.88;5070992;28;20131;-63
2022/09/09 09:18:51;;;;;;;6.13;2.20;;;;;;;20.88;63.54;99136.56;5071813;28;20182;-63
2022/09/09 09:21:23;;;;;;;3.55;1.65;;;;;;;20.97;63.75;99126.66;5072240;28;20088;-64
2022/09/09 09:23:59;;;;;;;5.78;2.22;;;;;;;21.02;62.01;99131.53;5072026;28;20088;-63
2022/09/09 09:26:35;;;;;;;6.10;2.03;;;;;;;21.08;61.77;99130.81;5072286;28;20053;-63
2022/09/09 09:29:18;;;;;;;7.65;2.00;;;;;;;21.17;62.08;99124.47;5070446;28;20512;-64
2022/09/09 09:31:55;;;;;;;6.68;2.00;;;;;;;21.25;62.32;99125.41;5072205;28;20489;-64
2022/09/09 09:34:23;;;;;;;6.20;2.17;;;;;;;21.36;62.49;99125.06;5070623;28;20135;-63
2022/09/09 09:36:58;;;;;;;8.35;2.08;;;;;;;21.44;61.31;99127.69;5071984;28;20114;-63
2022/09/09 09:39:30;;;;;;;5.22;2.40;;;;;;;21.52;60.89;99123.31;5071502;28;20084;-63
2022/09/09 09:42:17;;;;;;;5.45;2.13;;;;;;;21.63;61.63;99127.47;5071579;28;20040;-63
2022/09/09 09:44:49;;;;;;;7.07;2.75;;;;;;;21.67;61.28;99116.19;5071690;28;20048;-63
2022/09/09 09:47:21;;;;;;;6.95;2.33;;;;;;;21.71;60.21;99106.81;5071819;28;20056;-63
2022/09/09 09:49:55;;;;;;;5.38;2.25;;;;;;;21.77;60.02;99107.13;5071219;28;20454;-63
2022/09/09 09:52:30;;;;;;;5.00;2.20;;;;;;;21.78;59.35;99109.66;5071803;28;20052;-63
2022/09/09 09:55:01;;;;;;;8.57;2.40;;;;;;;21.84;60.04;99113.47;5069877;28;20546;-63
2022/09/09 09:57:34;;;;;;;4.32;2.17;;;;;;;21.86;60.01;99108.75;5071411;28;20498;-63
2022/09/09 10:00:13;;;;;;;5.30;2.53;;;;;;;21.87;59.68;99105.09;5071083;28;20462;-64
2022/09/09 10:02:43;;;;;;;9.38;2.67;;;;;;;21.89;59.46;99105.72;5071277;28;20083;-63
2022/09/09 10:05:25;;;;;;;9.63;3.08;;;;;;;21.88;58.73;99122.81;5071016;28;20088;-62
2022/09/09 10:08:04;;;;;;;4.97;2.78;;;;;;;21.88;58.75;99114.78;5071179;28;20050;-63
2022/09/09 10:10:41;;;;;;;6.35;2.05;;;;;;;21.88;58.07;99117.47;5071085;28;20061;-64
2022/09/09 10:13:43;;;;;;;4.80;1.95;;;;;;;21.87;57.36;99116.63;5071090;28;20049;-63
2022/09/09 10:16:15;;;;;;;3.65;1.88;;;;;;;22.00;60.26;99101.78;5065827;28;20048;-63
2022/09/09 10:18:46;;;;;;;4.00;1.92;;;;;;;22.11;59.06;99101.38;5070910;28;20080;-63
2022/09/09 10:21:50;;;;;;;5.30;1.95;;;;;;;22.31;59.38;99102.75;5070857;28;20147;-64
2022/09/09 10:24:55;;;;;;;5.20;1.60;;;;;;;22.57;57.35;99096.19;5071013;28;20105;-63
2022/09/09 10:27:33;;;;;;;4.03;1.60;;;;;;;22.81;56.87;99107.66;5070731;28;20052;-62
2022/09/09 10:30:12;;;;;;;6.75;2.22;;;;;;;22.96;55.29;99107.69;5070965;28;20118;-63
2022/09/09 10:33:05;;;;;;;9.32;1.90;;;;;;;23.01;52.50;99108.78;5071018;28;20087;-64
2022/09/09 10:35:40;;;;;;;7.35;1.88;;;;;;;23.14;54.32;99105.44;5070778;28;20052;-64
2022/09/09 10:38:34;;;;;;;5.70;1.67;;;;;;;23.19;54.62;99106.75;5069284;28;20102;-63
2022/09/09 10:41:13;;;;;;;6.72;1.80;;;;;;;23.30;54.65;99115.16;5070764;28;20072;-62
2022/09/09 10:43:45;;;;;;;6.03;1.90;;;;;;;23.42;55.59;99103.97;5070681;28;20531;-64
2022/09/09 10:46:33;;;;;;;9.05;2.20;;;;;;;23.49;53.79;99110.28;5070603;28;20084;-63
2022/09/09 10:49:27;;;;;;;5.22;1.60;;;;;;;23.51;52.97;99110.09;5070374;28;20456;-63
2022/09/09 10:52:16;;;;;;;6.85;1.98;;;;;;;23.45;51.84;99106.28;5070534;28;20087;-63
2022/09/09 10:55:19;;;;;;;5.47;1.33;;;;;;;23.37;52.83;99098.34;5069282;28;20056;-62
2022/09/09 10:57:51;;;;;;;;;;;;;;;23.34;54.20;99104.91;5070929;28;20393;-63
2022/09/09 11:00:24;;;;;;;3.97;1.30;;;;;;;23.32;53.46;99111.47;5069034;28;19967;-63
2022/09/09 11:03:00;;;;;;;4.88;1.80;;;;;;;23.25;53.31;99101.47;5070433;28;20472;-63
2022/09/09 11:05:44;;;;;;;6.75;1.58;;;;;;;23.34;53.04;99094.19;5070581;28;20044;-63
2022/09/09 11:08:17;;;;;;;6.25;1.42;;;;;;;23.67;55.21;99099.09;5069369;28;20118;-63
2022/09/09 11:10:52;;;;;;;4.95;1.42;;;;;;;24.11;55.14;99093.78;5070414;28;20102;-64
2022/09/09 11:13:37;;;;;;;4.00;1.33;;;;;;;24.52;52.17;99102.19;5069039;28;20484;-64
2022/09/09 11:16:38;;;;;;;5.70;1.52;;;;;;;24.77;49.90;99102.56;5070626;28;20056;-64
2022/09/09 11:19:19;;;;;;;3.78;1.30;;;;;;;24.85;49.77;99102.44;5070183;28;20072;-62
2022/09/09 11:21:49;;;;;;;6.95;1.52;;;;;;;24.80;49.48;99098.66;5069188;28;20060;-63
2022/09/09 11:24:41;;;;;;;5.10;1.38;;;;;;;24.65;49.93;99104.13;5070178;28;20137;-63
2022/09/09 11:27:12;;;;;;;2.63;1.02;;;;;;;24.68;50.85;99087.59;5063086;28;20441;-63
2022/09/09 11:29:57;;;;;;;4.82;1.30;;;;;;;24.58;48.53;99094.16;5069997;28;20474;-65
2022/09/09 11:32:40;;;;;;;4.90;1.30;;;;;;;24.57;49.56;99091.66;5070084;28;20045;-63
2022/09/09 11:35:21;;;;;;;1.85;0.85;;;;;;;24.51;48.71;99103.22;5069095;28;20132;-63
2022/09/09 11:38:15;;;;;;;4.00;1.30;;;;;;;24.42;47.73;99111.44;5070049;28;20049;-62
2022/09/09 11:40:43;;;;;;;3.15;1.05;;;;;;;24.39;48.87;99106.44;5070368;28;20091;-63
2022/09/09 11:43:09;;;;;;;5.35;1.38;;;;;;;24.28;49.10;99102.41;5068702;28;20538;-63
2022/09/09 11:45:36;;;;;;;2.90;1.10;;;;;;;24.24;50.38;99106.50;5070198;28;20088;-63
2022/09/09 11:48:05;;;;;;;3.65;1.15;;;;;;;24.33;50.42;99116.09;5069957;28;20135;-66
2022/09/09 11:50:35;;;;;;;3.38;1.20;;;;;;;24.59;50.93;99105.75;5067925;28;20166;-63
2022/09/09 11:53:07;;;;;;;4.07;1.13;;;;;;;24.94;50.23;99107.69;5068228;28;20076;-64
2022/09/09 11:55:36;;;;;;;3.97;1.27;;;;;;;25.36;52.32;99105.81;5069638;28;20110;-63
2022/09/09 11:58:05;;;;;;;4.28;1.20;;;;;;;25.89;51.31;99100.81;5069830;28;20059;-67
2022/09/09 12:00:35;;;;;;;3.75;1.40;;;;;;;26.50;51.66;99087.41;5068556;28;20052;-63
2022/09/09 12:03:01;;;;;;;4.10;1.10;;;;;;;27.14;50.88;99095.81;5070098;28;20049;-63
2022/09/09 12:05:58;;;;;;;3.15;0.90;;;;;;;27.68;46.72;99098.31;5069432;28;20080;-62